Airport View

Enter AWOS ICAO identifier for current METAR.

ex. KFNL

KBAD 031556Z AUTO 31008KT 10SM FEW130 32/30 A2998 RMK AO2 SLP153 T03200295

3 Jul 2020 16:26

Other Area AWOS: KDTN - KSHV - KMNE - K3F3

TAF KBAD 031000Z 0310/0416 VRB03KT 9999 SCT045 BKN250 QNH2990INS BECMG 0315/0316 27006KT 9999 VCTS BKN040CB QNH2988INS TEMPO 0317/0321 9000 -TSRA OVC040CB BECMG 0322/0323 32002KT 9999 NSW SCT050 BKN250 QNH2985INS TX35/0321Z TN25/0311Z